createdAt,value
2022-10-29T00:00:45.265Z,18.70
2022-10-29T00:03:12.060Z,18.70
2022-10-29T00:05:38.881Z,18.70
2022-10-29T00:08:05.560Z,18.70
2022-10-29T00:10:32.429Z,18.70
2022-10-29T00:13:03.345Z,18.60
2022-10-29T00:15:30.252Z,18.60
2022-10-29T00:17:57.169Z,18.60
2022-10-29T00:20:24.262Z,18.50
2022-10-29T00:22:54.818Z,18.60
2022-10-29T00:25:21.909Z,18.50
2022-10-29T00:27:48.656Z,18.50
2022-10-29T00:30:15.646Z,18.50
2022-10-29T00:32:42.502Z,18.50
2022-10-29T00:35:09.404Z,18.50
2022-10-29T00:37:36.177Z,18.40
2022-10-29T00:40:03.656Z,18.40
2022-10-29T00:42:30.410Z,18.40
2022-10-29T00:44:57.170Z,18.30
2022-10-29T00:47:29.020Z,18.30
2022-10-29T00:50:08.897Z,18.30
2022-10-29T00:52:40.309Z,18.30
2022-10-29T00:55:10.248Z,18.30
2022-10-29T00:57:43.197Z,18.30
2022-10-29T01:00:10.732Z,18.30
2022-10-29T01:02:38.834Z,18.20
2022-10-29T01:05:07.166Z,18.10
2022-10-29T01:07:34.518Z,18.20
2022-10-29T01:10:01.285Z,18.10
2022-10-29T01:12:50.923Z,18.10
2022-10-29T01:15:29.057Z,18.00
2022-10-29T01:18:19.514Z,18.00
2022-10-29T01:21:09.641Z,17.90
2022-10-29T01:24:25.390Z,17.80
2022-10-29T01:26:52.037Z,17.80
2022-10-29T01:30:11.061Z,17.80
2022-10-29T01:32:57.526Z,17.80
2022-10-29T01:35:47.931Z,17.80
2022-10-29T01:38:34.666Z,17.80
2022-10-29T01:41:28.489Z,17.80
2022-10-29T01:44:26.939Z,17.80
2022-10-29T01:46:59.580Z,17.90
2022-10-29T01:49:32.205Z,17.80
2022-10-29T01:52:01.792Z,17.90
2022-10-29T01:54:28.635Z,17.90
2022-10-29T01:56:59.946Z,17.90
2022-10-29T01:59:43.406Z,17.90
2022-10-29T02:02:25.713Z,17.90
2022-10-29T02:05:19.528Z,17.80
2022-10-29T02:08:04.332Z,17.80
2022-10-29T02:10:40.600Z,17.80
2022-10-29T02:13:09.930Z,17.80
2022-10-29T02:15:44.316Z,17.70
2022-10-29T02:18:11.461Z,17.70
2022-10-29T02:20:42.425Z,17.70
2022-10-29T02:23:09.673Z,17.70
2022-10-29T02:25:36.677Z,17.60
2022-10-29T02:28:03.783Z,17.60
2022-10-29T02:30:30.573Z,17.60
2022-10-29T02:32:57.483Z,17.60
2022-10-29T02:35:24.617Z,17.60
2022-10-29T02:37:51.439Z,17.50
2022-10-29T02:40:18.165Z,17.40
2022-10-29T02:42:45.092Z,17.50
2022-10-29T02:45:11.781Z,17.50
2022-10-29T02:47:38.508Z,17.50
2022-10-29T02:50:05.773Z,17.40
2022-10-29T02:52:32.453Z,17.40
2022-10-29T02:54:59.193Z,17.30
2022-10-29T02:57:25.853Z,17.30
2022-10-29T02:59:52.526Z,17.20
2022-10-29T03:02:19.361Z,17.20
2022-10-29T03:04:46.126Z,17.20
2022-10-29T03:07:12.879Z,17.10
2022-10-29T03:09:39.526Z,17.10
2022-10-29T03:12:06.573Z,17.10
2022-10-29T03:14:33.512Z,17.10
2022-10-29T03:17:00.239Z,17.00
2022-10-29T03:19:26.932Z,16.90
2022-10-29T03:21:53.616Z,16.90
2022-10-29T03:24:20.319Z,16.90
2022-10-29T03:26:47.036Z,16.70
2022-10-29T03:29:13.737Z,16.70
2022-10-29T03:31:40.511Z,16.60
2022-10-29T03:34:07.188Z,16.50
2022-10-29T03:36:33.911Z,16.50
2022-10-29T03:39:00.592Z,16.40
2022-10-29T03:41:27.305Z,16.40
2022-10-29T03:46:25.893Z,16.40
2022-10-29T03:48:52.549Z,16.40
2022-10-29T03:51:19.433Z,16.40
2022-10-29T03:53:46.187Z,16.40
2022-10-29T03:56:13.026Z,16.40
2022-10-29T03:58:39.768Z,16.40
2022-10-29T04:01:08.741Z,16.40
2022-10-29T04:03:36.940Z,16.40
2022-10-29T04:06:13.471Z,16.40
2022-10-29T04:08:40.748Z,16.40
2022-10-29T04:11:09.023Z,16.40
2022-10-29T04:13:35.774Z,16.40
2022-10-29T04:16:02.537Z,16.40
2022-10-29T04:18:30.472Z,16.40
2022-10-29T04:27:08.248Z,16.50
2022-10-29T04:29:25.383Z,16.50
2022-10-29T04:31:52.176Z,16.50
2022-10-29T04:34:18.818Z,16.50
2022-10-29T04:36:45.785Z,16.50
2022-10-29T04:39:12.554Z,16.40
2022-10-29T04:41:39.283Z,16.40
2022-10-29T04:44:05.972Z,16.30
2022-10-29T04:46:32.753Z,16.30
2022-10-29T04:48:59.571Z,16.30
2022-10-29T04:51:26.892Z,16.30
2022-10-29T04:53:53.666Z,16.30
2022-10-29T04:56:21.846Z,16.40
2022-10-29T04:58:52.551Z,16.50
2022-10-29T05:01:20.141Z,16.50
2022-10-29T05:03:47.382Z,16.40
2022-10-29T05:06:14.150Z,16.40
2022-10-29T05:08:40.875Z,16.40
2022-10-29T05:11:07.814Z,16.40
2022-10-29T05:13:35.111Z,16.40
2022-10-29T05:16:02.101Z,16.30
2022-10-29T05:18:28.876Z,16.30
2022-10-29T05:20:56.512Z,16.30
2022-10-29T05:23:23.669Z,16.30
2022-10-29T05:25:52.129Z,16.30
2022-10-29T05:28:21.209Z,16.30
2022-10-29T05:30:49.945Z,16.30
2022-10-29T05:33:19.402Z,16.30
2022-10-29T05:35:46.876Z,16.30
2022-10-29T05:38:14.772Z,16.30
2022-10-29T05:40:45.132Z,16.30
2022-10-29T05:43:13.926Z,16.30
2022-10-29T05:45:41.229Z,16.30
2022-10-29T05:48:09.760Z,16.20
2022-10-29T05:50:36.617Z,16.20
2022-10-29T05:53:05.922Z,16.20
2022-10-29T05:55:34.584Z,16.20
2022-10-29T05:58:06.806Z,16.10
2022-10-29T06:00:36.668Z,16.20
2022-10-29T06:03:03.953Z,16.20
2022-10-29T06:05:30.678Z,16.30
2022-10-29T06:07:59.373Z,16.30
2022-10-29T06:10:28.243Z,16.30
2022-10-29T06:12:55.876Z,16.30
2022-10-29T06:15:23.090Z,16.40
2022-10-29T06:17:50.074Z,16.40
2022-10-29T06:20:19.801Z,16.30
2022-10-29T06:22:46.511Z,16.40
2022-10-29T06:25:13.232Z,16.40
2022-10-29T06:27:39.957Z,16.40
2022-10-29T06:30:07.376Z,16.40
2022-10-29T06:32:34.052Z,16.40
2022-10-29T06:35:00.824Z,16.40
2022-10-29T06:37:27.597Z,16.40
2022-10-29T06:39:54.360Z,16.40
2022-10-29T06:42:21.033Z,16.40
2022-10-29T06:44:47.857Z,16.40
2022-10-29T06:47:14.626Z,16.40
2022-10-29T06:49:41.381Z,16.30
2022-10-29T06:52:08.065Z,16.30
2022-10-29T06:54:34.732Z,16.30
2022-10-29T06:57:01.460Z,16.30
2022-10-29T06:59:28.174Z,16.30
2022-10-29T07:01:54.923Z,16.30
2022-10-29T07:04:21.688Z,16.30
2022-10-29T07:06:48.512Z,16.30
2022-10-29T07:09:15.275Z,16.30
2022-10-29T07:11:41.941Z,16.30
2022-10-29T07:14:09.954Z,16.30
2022-10-29T07:16:37.006Z,16.30
2022-10-29T07:19:04.595Z,16.30
2022-10-29T07:21:31.665Z,16.30
2022-10-29T07:23:58.432Z,16.30
2022-10-29T07:26:25.116Z,16.30
2022-10-29T07:28:56.869Z,16.40
2022-10-29T07:31:24.348Z,16.40
2022-10-29T07:33:51.359Z,16.40
2022-10-29T07:36:18.103Z,16.50
2022-10-29T07:38:44.781Z,16.50
2022-10-29T07:41:11.469Z,16.60
2022-10-29T07:43:38.201Z,16.60
2022-10-29T07:46:05.313Z,16.60
2022-10-29T07:48:32.492Z,16.70
2022-10-29T07:51:00.736Z,16.70
2022-10-29T07:53:27.862Z,16.80
2022-10-29T07:55:55.558Z,16.80
2022-10-29T07:58:22.840Z,16.80
2022-10-29T08:00:50.842Z,16.90
2022-10-29T08:03:17.693Z,16.90
2022-10-29T08:05:45.749Z,17.00
2022-10-29T08:08:12.524Z,17.00
2022-10-29T08:10:39.455Z,17.10
2022-10-29T08:13:07.082Z,17.10
2022-10-29T08:15:35.159Z,17.20
2022-10-29T08:18:04.885Z,17.20
2022-10-29T08:20:31.663Z,17.20
2022-10-29T08:23:01.739Z,17.30
2022-10-29T08:25:28.768Z,17.30
2022-10-29T08:28:03.532Z,17.40
2022-10-29T08:30:31.291Z,17.40
2022-10-29T08:32:58.858Z,17.50
2022-10-29T08:35:26.429Z,17.50
2022-10-29T08:37:53.521Z,17.50
2022-10-29T08:40:26.392Z,17.60
2022-10-29T08:43:21.423Z,17.60
2022-10-29T08:45:50.849Z,17.60
2022-10-29T08:48:34.587Z,17.60
2022-10-29T08:51:15.789Z,17.60
2022-10-29T08:53:58.929Z,17.60
2022-10-29T08:56:40.291Z,17.70
2022-10-29T08:59:23.159Z,17.70
2022-10-29T09:01:52.449Z,17.70
2022-10-29T09:04:27.482Z,17.80
2022-10-29T09:07:21.509Z,17.80
2022-10-29T09:09:59.790Z,17.90
2022-10-29T09:12:41.007Z,18.00
2022-10-29T09:15:57.736Z,18.20
2022-10-29T09:18:47.756Z,18.30
2022-10-29T09:21:26.099Z,18.40
2022-10-29T09:24:35.310Z,18.50
2022-10-29T09:27:24.335Z,18.60
2022-10-29T09:30:10.198Z,18.70
2022-10-29T09:32:45.035Z,18.70
2022-10-29T09:35:17.996Z,18.70
2022-10-29T09:37:54.286Z,18.70
2022-10-29T09:40:34.043Z,18.70
2022-10-29T09:43:06.964Z,18.70
2022-10-29T09:46:14.998Z,18.80
2022-10-29T09:49:02.718Z,18.90
2022-10-29T09:51:41.699Z,18.90
2022-10-29T09:54:09.266Z,19.00
2022-10-29T09:56:39.827Z,19.00
2022-10-29T09:59:18.181Z,19.10
2022-10-29T10:01:47.270Z,19.20
2022-10-29T10:04:28.539Z,19.20
2022-10-29T10:07:03.843Z,19.40
2022-10-29T10:09:51.155Z,19.50
2022-10-29T10:12:19.481Z,19.60
2022-10-29T10:14:48.062Z,19.60
2022-10-29T10:17:15.491Z,19.80
2022-10-29T10:19:46.428Z,19.80
2022-10-29T10:22:22.328Z,19.90
2022-10-29T10:24:49.040Z,20.00
2022-10-29T10:27:18.951Z,20.00
2022-10-29T10:30:07.953Z,20.10
2022-10-29T10:32:34.769Z,20.20
2022-10-29T10:35:01.646Z,20.20
2022-10-29T10:37:31.582Z,20.20
2022-10-29T10:40:03.371Z,20.30
2022-10-29T10:42:39.367Z,20.30
2022-10-29T10:45:15.896Z,20.40
2022-10-29T10:47:48.948Z,20.40
2022-10-29T10:50:22.797Z,20.40
2022-10-29T10:52:50.314Z,20.50
2022-10-29T10:55:24.298Z,20.50
2022-10-29T10:58:06.221Z,20.50
2022-10-29T11:00:41.027Z,20.50
2022-10-29T11:03:35.005Z,20.50
2022-10-29T11:06:08.532Z,20.50
2022-10-29T11:08:42.645Z,20.50
2022-10-29T11:11:41.472Z,20.50
2022-10-29T11:14:17.640Z,20.50
2022-10-29T11:16:49.887Z,20.50
2022-10-29T11:19:35.812Z,20.50
2022-10-29T11:22:37.329Z,20.50
2022-10-29T11:25:40.053Z,20.50
2022-10-29T11:28:34.486Z,20.50
2022-10-29T11:31:33.907Z,20.60
2022-10-29T11:34:23.138Z,20.80
2022-10-29T11:37:13.099Z,20.90
2022-10-29T11:39:46.839Z,20.90
2022-10-29T11:42:13.915Z,20.90
2022-10-29T11:44:41.655Z,21.00
2022-10-29T11:47:23.136Z,21.10
2022-10-29T11:50:22.244Z,21.20
2022-10-29T11:53:08.488Z,21.20
2022-10-29T11:55:41.038Z,21.30
2022-10-29T11:58:28.662Z,21.30
2022-10-29T12:01:19.069Z,21.40
2022-10-29T12:04:21.239Z,21.40
2022-10-29T12:07:04.542Z,21.50
2022-10-29T12:09:43.570Z,21.50
2022-10-29T12:12:13.497Z,21.60
2022-10-29T12:14:50.383Z,21.60
2022-10-29T12:17:23.421Z,21.70
2022-10-29T12:20:15.360Z,21.90
2022-10-29T12:22:59.339Z,22.00
2022-10-29T12:25:59.200Z,22.20
2022-10-29T12:28:35.144Z,22.20
2022-10-29T12:31:17.240Z,22.20
2022-10-29T12:33:59.396Z,22.30
2022-10-29T12:36:50.787Z,22.40
2022-10-29T12:39:53.038Z,22.60
2022-10-29T12:42:25.281Z,22.60
2022-10-29T12:45:16.366Z,22.50
2022-10-29T12:47:55.225Z,22.50
2022-10-29T12:50:30.953Z,22.50
2022-10-29T12:53:32.005Z,22.50
2022-10-29T12:55:59.099Z,22.50
2022-10-29T12:58:45.512Z,22.40
2022-10-29T13:01:50.150Z,22.40
2022-10-29T13:04:34.206Z,22.30
2022-10-29T13:07:18.412Z,22.20
2022-10-29T13:09:48.316Z,22.20
2022-10-29T13:12:53.698Z,22.10
2022-10-29T13:15:29.308Z,22.10
2022-10-29T13:17:59.933Z,22.10
2022-10-29T13:20:48.431Z,22.10
2022-10-29T13:23:24.191Z,22.10
2022-10-29T13:25:54.302Z,22.10
2022-10-29T13:28:21.096Z,22.10
2022-10-29T13:31:13.632Z,22.10
2022-10-29T13:33:40.281Z,22.10
2022-10-29T13:36:15.926Z,22.20
2022-10-29T13:39:06.254Z,22.20
2022-10-29T13:41:54.119Z,22.30
2022-10-29T13:44:29.320Z,22.50
2022-10-29T13:47:02.426Z,22.60
2022-10-29T13:49:43.321Z,22.60
2022-10-29T13:52:10.037Z,22.70
2022-10-29T13:54:54.152Z,22.70
2022-10-29T13:57:38.300Z,22.60
2022-10-29T14:00:13.224Z,22.60
2022-10-29T14:02:42.775Z,22.50
2022-10-29T14:05:18.400Z,22.40
2022-10-29T14:07:53.809Z,22.40
2022-10-29T14:10:35.202Z,22.40
2022-10-29T14:13:13.804Z,22.40
2022-10-29T14:16:21.337Z,22.40
2022-10-29T14:18:49.587Z,22.40
2022-10-29T14:21:19.094Z,22.40
2022-10-29T14:23:56.563Z,22.50
2022-10-29T14:26:24.797Z,22.50
2022-10-29T14:28:52.872Z,22.50
2022-10-29T14:31:22.535Z,22.50
2022-10-29T14:33:57.866Z,22.50
2022-10-29T14:36:41.447Z,22.40
2022-10-29T14:39:28.793Z,22.40
2022-10-29T14:42:07.400Z,22.40
2022-10-29T14:44:34.783Z,22.40
2022-10-29T14:47:13.245Z,22.30
2022-10-29T14:49:45.346Z,22.30
2022-10-29T14:52:41.069Z,22.30
2022-10-29T14:55:17.597Z,22.20
2022-10-29T14:57:49.652Z,22.10
2022-10-29T15:00:30.026Z,22.00
2022-10-29T15:02:59.656Z,21.90
2022-10-29T15:05:28.530Z,21.80
2022-10-29T15:08:05.238Z,21.80
2022-10-29T15:10:32.256Z,21.70
2022-10-29T15:12:59.430Z,21.70
2022-10-29T15:15:29.190Z,21.60
2022-10-29T15:18:01.516Z,21.50
2022-10-29T15:20:32.145Z,21.50
2022-10-29T15:22:59.648Z,21.50
2022-10-29T15:25:35.587Z,21.40
2022-10-29T15:28:02.811Z,21.30
2022-10-29T15:30:35.254Z,21.30
2022-10-29T15:33:16.885Z,21.20
2022-10-29T15:35:52.711Z,21.20
2022-10-29T15:38:33.507Z,21.10
2022-10-29T15:41:09.090Z,21.10
2022-10-29T15:43:55.114Z,21.10
2022-10-29T15:46:27.397Z,21.00
2022-10-29T15:48:54.535Z,20.90
2022-10-29T15:51:28.401Z,20.90
2022-10-29T15:53:56.899Z,20.80
2022-10-29T15:56:24.337Z,20.70
2022-10-29T15:58:52.442Z,20.70
2022-10-29T16:01:19.404Z,20.60
2022-10-29T16:03:46.288Z,20.60
2022-10-29T16:06:15.193Z,20.50
2022-10-29T16:08:46.058Z,20.50
2022-10-29T16:11:17.880Z,20.50
2022-10-29T16:13:44.517Z,20.40
2022-10-29T16:16:18.829Z,20.40
2022-10-29T16:18:46.466Z,20.30
2022-10-29T16:21:21.082Z,20.30
2022-10-29T16:23:48.546Z,20.30
2022-10-29T16:26:33.417Z,20.20
2022-10-29T16:29:00.128Z,20.20
2022-10-29T16:31:28.511Z,20.20
2022-10-29T16:33:58.125Z,20.10
2022-10-29T16:36:25.256Z,20.10
2022-10-29T16:38:51.939Z,20.10
2022-10-29T16:41:20.217Z,20.00
2022-10-29T16:43:47.220Z,20.00
2022-10-29T16:46:14.801Z,19.90
2022-10-29T16:48:42.023Z,19.90
2022-10-29T16:51:08.873Z,19.90
2022-10-29T16:53:35.602Z,19.80
2022-10-29T16:56:02.421Z,19.80
2022-10-29T16:58:29.345Z,19.80
2022-10-29T17:01:06.673Z,19.70
2022-10-29T17:03:34.349Z,19.70
2022-10-29T17:06:06.983Z,19.70
2022-10-29T17:08:34.890Z,19.70
2022-10-29T17:11:02.771Z,19.60
2022-10-29T17:13:29.551Z,19.60
2022-10-29T17:15:56.221Z,19.60
2022-10-29T17:18:24.580Z,19.50
2022-10-29T17:20:56.113Z,19.50
2022-10-29T17:23:23.017Z,19.50
2022-10-29T17:25:54.440Z,19.50
2022-10-29T17:28:22.274Z,19.50
2022-10-29T17:30:49.257Z,19.40
2022-10-29T17:33:16.437Z,19.40
2022-10-29T17:35:44.306Z,19.40
2022-10-29T17:38:11.658Z,19.40
2022-10-29T17:40:38.721Z,19.40
2022-10-29T17:43:05.820Z,19.30
2022-10-29T17:45:32.631Z,19.30
2022-10-29T17:48:00.153Z,19.30
2022-10-29T17:50:27.378Z,19.30
2022-10-29T17:52:54.943Z,19.20
2022-10-29T17:55:21.645Z,19.30
2022-10-29T17:57:48.452Z,19.30
2022-10-29T18:00:15.708Z,19.20
2022-10-29T18:02:43.277Z,19.20
2022-10-29T18:05:10.117Z,19.20
2022-10-29T18:07:36.838Z,19.20
2022-10-29T18:10:04.016Z,19.20
2022-10-29T18:12:30.779Z,19.20
2022-10-29T18:14:57.448Z,19.10
2022-10-29T18:17:24.960Z,19.10
2022-10-29T18:19:51.785Z,19.10
2022-10-29T18:22:18.502Z,19.10
2022-10-29T18:24:45.153Z,19.00
2022-10-29T18:27:11.829Z,19.00
2022-10-29T18:29:38.692Z,19.00
2022-10-29T18:32:05.504Z,19.00
2022-10-29T18:34:34.060Z,19.00
2022-10-29T18:37:00.942Z,19.00
2022-10-29T18:39:27.714Z,19.00
2022-10-29T18:41:54.470Z,19.00
2022-10-29T18:44:21.172Z,19.00
2022-10-29T18:46:47.888Z,19.00
2022-10-29T18:49:14.822Z,19.00
2022-10-29T18:51:41.789Z,18.90
2022-10-29T18:54:10.692Z,18.90
2022-10-29T18:56:37.451Z,18.90
2022-10-29T18:59:04.170Z,19.00
2022-10-29T19:01:33.611Z,19.00
2022-10-29T19:04:03.332Z,18.90
2022-10-29T19:06:31.761Z,18.80
2022-10-29T19:09:01.668Z,18.80
2022-10-29T19:11:29.176Z,18.80
2022-10-29T19:14:00.706Z,18.70
2022-10-29T19:16:28.155Z,18.70
2022-10-29T19:19:03.177Z,18.70
2022-10-29T19:21:30.731Z,18.70
2022-10-29T19:23:59.904Z,18.60
2022-10-29T19:26:29.223Z,18.60
2022-10-29T19:28:58.416Z,18.60
2022-10-29T19:31:28.076Z,18.60
2022-10-29T19:34:00.303Z,18.60
2022-10-29T19:36:28.903Z,18.60
2022-10-29T19:38:56.967Z,18.60
2022-10-29T19:41:24.402Z,18.60
2022-10-29T19:43:51.318Z,18.60
2022-10-29T19:46:24.001Z,18.60
2022-10-29T19:48:52.663Z,18.60
2022-10-29T19:51:20.154Z,18.50
2022-10-29T19:53:47.409Z,18.50
2022-10-29T19:56:16.172Z,18.50
2022-10-29T19:58:43.495Z,18.50
2022-10-29T20:01:16.911Z,18.50
2022-10-29T20:03:44.489Z,18.50
2022-10-29T20:06:11.631Z,18.40
2022-10-29T20:08:38.886Z,18.40
2022-10-29T20:11:06.606Z,18.40
2022-10-29T20:13:33.674Z,18.40
2022-10-29T20:16:06.251Z,18.40
2022-10-29T20:18:35.728Z,18.30
2022-10-29T20:21:02.512Z,18.30
2022-10-29T20:23:29.403Z,18.30
2022-10-29T20:25:56.107Z,18.30
2022-10-29T20:28:23.141Z,18.30
2022-10-29T20:30:49.991Z,18.30
2022-10-29T20:33:16.683Z,18.20
2022-10-29T20:35:43.324Z,18.20
2022-10-29T20:38:10.058Z,18.20
2022-10-29T20:40:37.095Z,18.20
2022-10-29T20:43:03.828Z,18.10
2022-10-29T20:45:30.574Z,18.20
2022-10-29T20:47:57.596Z,18.10
2022-10-29T20:50:24.529Z,18.10
2022-10-29T20:52:51.352Z,18.00
2022-10-29T20:55:18.055Z,18.00
2022-10-29T20:57:44.871Z,18.00
2022-10-29T21:00:11.970Z,18.00
2022-10-29T21:02:38.674Z,18.00
2022-10-29T21:05:05.987Z,18.00
2022-10-29T21:07:32.782Z,18.00
2022-10-29T21:09:59.506Z,18.00
2022-10-29T21:12:26.263Z,18.00
2022-10-29T21:14:53.031Z,18.00
2022-10-29T21:17:22.228Z,18.00
2022-10-29T21:19:49.155Z,18.00
2022-10-29T21:22:18.895Z,18.00
2022-10-29T21:24:46.123Z,18.00
2022-10-29T21:27:12.853Z,18.00
2022-10-29T21:29:39.790Z,18.00
2022-10-29T21:32:08.359Z,18.00
2022-10-29T21:34:36.891Z,18.00
2022-10-29T21:37:03.539Z,18.00
2022-10-29T21:39:30.289Z,18.00
2022-10-29T21:41:57.147Z,18.00
2022-10-29T21:44:23.911Z,18.00
2022-10-29T21:46:50.671Z,18.00
2022-10-29T21:49:17.349Z,18.10
2022-10-29T21:51:44.005Z,18.10
2022-10-29T21:54:10.760Z,18.10
2022-10-29T21:56:37.463Z,18.10
2022-10-29T21:59:04.166Z,18.10
2022-10-29T22:01:31.084Z,18.10
2022-10-29T22:03:57.880Z,18.10
2022-10-29T22:06:27.367Z,18.10
2022-10-29T22:08:59.308Z,18.10
2022-10-29T22:11:27.496Z,18.10
2022-10-29T22:13:54.851Z,18.10
2022-10-29T22:16:22.348Z,18.10
2022-10-29T22:18:50.009Z,18.10
2022-10-29T22:21:20.925Z,18.10
2022-10-29T22:23:58.278Z,18.10
2022-10-29T22:26:28.520Z,18.20
2022-10-29T22:28:55.745Z,18.10
2022-10-29T22:31:24.060Z,18.10
2022-10-29T22:33:51.054Z,18.10
2022-10-29T22:36:22.936Z,18.10
2022-10-29T22:38:54.579Z,18.00
2022-10-29T22:41:21.619Z,18.00
2022-10-29T22:43:48.567Z,18.00
2022-10-29T22:46:16.488Z,18.00
2022-10-29T22:48:43.683Z,18.00
2022-10-29T22:51:14.593Z,17.90
2022-10-29T22:53:41.908Z,17.90
2022-10-29T22:56:13.749Z,17.90
2022-10-29T22:58:40.703Z,17.90
2022-10-29T23:01:15.944Z,17.90
2022-10-29T23:03:43.601Z,17.90
2022-10-29T23:06:12.895Z,17.90
2022-10-29T23:08:40.039Z,17.90
2022-10-29T23:11:21.124Z,18.00
2022-10-29T23:13:54.061Z,17.90
2022-10-29T23:16:21.770Z,17.90
2022-10-29T23:18:53.764Z,17.90
2022-10-29T23:21:21.346Z,17.90
2022-10-29T23:23:51.571Z,17.90
2022-10-29T23:26:19.391Z,18.00
2022-10-29T23:28:46.936Z,18.00
2022-10-29T23:31:19.057Z,18.00
2022-10-29T23:33:47.939Z,18.00
2022-10-29T23:36:16.325Z,18.00
2022-10-29T23:38:43.577Z,18.00
2022-10-29T23:41:10.682Z,18.00
2022-10-29T23:43:37.724Z,18.00
2022-10-29T23:46:05.050Z,18.00
2022-10-29T23:48:31.928Z,18.00
2022-10-29T23:50:59.571Z,18.00
2022-10-29T23:53:26.341Z,18.00
2022-10-29T23:55:53.164Z,18.00
2022-10-29T23:58:19.967Z,18.00
